Time;durP1;ratioP1;P1;durP2;ratioP2;P2;SDS_P1;SDS_P2;PMS_P1;PMS_P2;Temp;Humidity;BMP_temperature;BMP_pressure;BME280_temperature;BME280_humidity;BME280_pressure;Samples;Min_cycle;Max_cycle;Signal;HPM_P1;HPM_P2
2022/10/08 00:00:26;;;;;;;10.00;8.23;;;;;;;;;;5133960;28;20910;-79
2022/10/08 00:02:55;;;;;;;9.13;8.23;;;;;;;;;;5134110;28;20461;-78
2022/10/08 00:05:21;;;;;;;12.60;8.80;;;;;;;;;;5116522;28;20469;-72
2022/10/08 00:07:47;;;;;;;9.70;8.10;;;;;;;;;;5134963;28;20413;-71
2022/10/08 00:10:13;;;;;;;7.17;6.83;;;;;;;;;;5134886;28;20502;-76
2022/10/08 00:12:39;;;;;;;14.90;8.60;;;;;;;;;;5134749;28;20421;-74
2022/10/08 00:15:05;;;;;;;19.53;8.70;;;;;;;;;;5116507;27;20416;-71
2022/10/08 00:17:31;;;;;;;8.53;7.73;;;;;;;;;;5120575;27;20460;-70
2022/10/08 00:19:57;;;;;;;10.90;9.07;;;;;;;;;;5138909;27;20401;-69
2022/10/08 00:22:24;;;;;;;10.20;8.40;;;;;;;;;;5139218;27;20428;-73
2022/10/08 00:24:52;;;;;;;15.47;9.20;;;;;;;;;;5139223;27;20398;-70
2022/10/08 00:27:19;;;;;;;11.93;9.00;;;;;;;;;;5138893;27;20888;-72
2022/10/08 00:29:45;;;;;;;12.03;8.73;;;;;;;;;;5139147;27;20885;-71
2022/10/08 00:32:11;;;;;;;11.40;8.30;;;;;;;;;;5119863;27;20424;-74
2022/10/08 00:34:38;;;;;;;9.37;8.50;;;;;;;;;;5119102;27;20413;-73
2022/10/08 00:37:05;;;;;;;9.90;8.70;;;;;;;;;;5137467;27;20917;-72
2022/10/08 00:39:30;;;;;;;17.70;8.40;;;;;;;;;;5137354;27;20892;-72
2022/10/08 00:41:56;;;;;;;10.73;9.80;;;;;;;;;;5137262;27;20464;-70
2022/10/08 00:44:41;;;;;;;14.30;9.30;;;;;;;;;;5118782;27;20432;-77
2022/10/08 00:47:18;;;;;;;21.13;8.83;;;;;;;;;;5118710;27;20830;-72
2022/10/08 00:49:48;;;;;;;10.03;8.47;;;;;;;;;;5137092;27;20419;-73
2022/10/08 00:52:15;;;;;;;11.53;8.20;;;;;;;;;;5136975;27;20462;-74
2022/10/08 00:54:41;;;;;;;10.10;9.17;;;;;;;;;;5137054;27;20404;-71
2022/10/08 00:57:08;;;;;;;11.63;8.77;;;;;;;;;;5137025;27;20410;-72
2022/10/08 00:59:35;;;;;;;10.20;9.40;;;;;;;;;;5136945;27;20396;-69
2022/10/08 01:02:01;;;;;;;12.10;9.87;;;;;;;;;;5136842;27;20406;-69
2022/10/08 01:04:28;;;;;;;11.10;9.90;;;;;;;;;;5136682;27;20468;-70
2022/10/08 01:07:07;;;;;;;14.70;10.90;;;;;;;;;;5136845;27;20459;-68
2022/10/08 01:09:48;;;;;;;10.80;9.33;;;;;;;;;;5136636;27;20495;-70
2022/10/08 01:12:29;;;;;;;13.37;9.43;;;;;;;;;;5136667;27;20421;-70
2022/10/08 01:14:58;;;;;;;13.57;9.97;;;;;;;;;;5136777;27;20500;-72
2022/10/08 01:17:37;;;;;;;9.73;8.90;;;;;;;;;;5136558;27;20479;-70
2022/10/08 01:20:21;;;;;;;10.03;9.03;;;;;;;;;;5136536;27;20883;-68
2022/10/08 01:22:47;;;;;;;11.53;8.90;;;;;;;;;;5136444;27;20419;-69
2022/10/08 01:25:34;;;;;;;12.50;8.93;;;;;;;;;;5117983;27;20503;-73
2022/10/08 01:28:15;;;;;;;9.27;8.53;;;;;;;;;;5136009;27;20819;-69
2022/10/08 01:30:46;;;;;;;17.67;9.27;;;;;;;;;;5117854;27;20471;-71
2022/10/08 01:33:24;;;;;;;9.47;8.40;;;;;;;;;;5136328;27;20493;-68
2022/10/08 01:35:55;;;;;;;10.07;9.10;;;;;;;;;;5136174;27;20393;-71
2022/10/08 01:38:22;;;;;;;14.80;8.13;;;;;;;;;;5136130;27;20412;-70
2022/10/08 01:40:51;;;;;;;9.43;8.53;;;;;;;;;;5136086;27;20393;-70
2022/10/08 01:43:18;;;;;;;12.70;9.00;;;;;;;;;;5136059;27;20442;-70
2022/10/08 01:45:51;;;;;;;9.03;8.17;;;;;;;;;;5136034;27;20385;-69
2022/10/08 01:48:22;;;;;;;9.43;8.47;;;;;;;;;;5135941;27;20393;-70
2022/10/08 01:50:57;;;;;;;8.00;7.43;;;;;;;;;;5135884;27;20467;-71
2022/10/08 01:53:25;;;;;;;11.67;8.30;;;;;;;;;;5117481;27;21028;-69
2022/10/08 01:55:53;;;;;;;12.53;8.20;;;;;;;;;;5135827;27;20407;-71
2022/10/08 01:58:24;;;;;;;14.53;10.47;;;;;;;;;;5135741;27;20418;-73
2022/10/08 02:00:52;;;;;;;19.30;11.47;;;;;;;;;;5135731;27;20421;-69
2022/10/08 02:03:18;;;;;;;11.57;10.23;;;;;;;;;;5135669;27;20439;-69
2022/10/08 02:05:49;;;;;;;13.33;10.37;;;;;;;;;;5135465;27;20505;-68
2022/10/08 02:08:15;;;;;;;10.93;9.80;;;;;;;;;;5135595;27;20446;-70
2022/10/08 02:10:41;;;;;;;16.33;9.57;;;;;;;;;;5135451;27;20528;-72
2022/10/08 02:13:08;;;;;;;14.83;9.43;;;;;;;;;;5135510;27;20411;-69
2022/10/08 02:15:43;;;;;;;13.50;8.83;;;;;;;;;;5135438;27;20403;-72
2022/10/08 02:18:20;;;;;;;9.70;8.97;;;;;;;;;;5117050;27;20449;-69
2022/10/08 02:21:03;;;;;;;9.70;8.90;;;;;;;;;;5135343;27;20494;-75
2022/10/08 02:23:29;;;;;;;8.63;7.77;;;;;;;;;;5116873;27;20522;-69
2022/10/08 02:25:56;;;;;;;10.00;9.00;;;;;;;;;;5135078;27;20769;-70
2022/10/08 02:28:31;;;;;;;16.60;8.60;;;;;;;;;;5135258;27;20453;-81
2022/10/08 02:31:16;;;;;;;13.70;9.53;;;;;;;;;;5116797;27;20830;-79
2022/10/08 02:33:44;;;;;;;12.33;9.30;;;;;;;;;;5135293;27;20400;-80
2022/10/08 02:36:11;;;;;;;12.97;8.17;;;;;;;;;;5116951;27;20416;-80
2022/10/08 02:38:42;;;;;;;17.00;9.63;;;;;;;;;;5115932;27;20829;-80
2022/10/08 02:41:10;;;;;;;10.60;8.80;;;;;;;;;;5116766;27;20412;-80
2022/10/08 02:43:37;;;;;;;10.50;8.50;;;;;;;;;;5134938;27;20410;-81
2022/10/08 02:46:10;;;;;;;13.30;9.10;;;;;;;;;;5134948;27;20854;-79
2022/10/08 02:48:37;;;;;;;9.93;8.50;;;;;;;;;;5134856;27;20400;-80
2022/10/08 02:51:07;;;;;;;14.73;8.37;;;;;;;;;;5116387;27;20473;-78
2022/10/08 02:53:35;;;;;;;13.70;8.97;;;;;;;;;;5134742;27;20420;-78
2022/10/08 02:56:13;;;;;;;9.63;8.80;;;;;;;;;;5116570;27;20742;-80
2022/10/08 02:58:41;;;;;;;10.83;8.00;;;;;;;;;;5116294;27;20411;-80
2022/10/08 03:01:25;;;;;;;9.53;8.60;;;;;;;;;;5116271;27;21012;-79
2022/10/08 03:03:54;;;;;;;10.43;9.27;;;;;;;;;;5115974;27;20531;-80
2022/10/08 03:06:20;;;;;;;17.67;8.47;;;;;;;;;;5134549;27;20419;-78
2022/10/08 03:08:48;;;;;;;9.40;8.60;;;;;;;;;;5134572;27;20411;-78
2022/10/08 03:11:14;;;;;;;10.63;8.53;;;;;;;;;;5134376;27;20490;-80
2022/10/08 03:13:42;;;;;;;9.73;8.93;;;;;;;;;;5116105;28;20426;-78
2022/10/08 03:16:10;;;;;;;13.40;8.93;;;;;;;;;;5134437;27;20407;-80
2022/10/08 03:18:37;;;;;;;8.73;8.00;;;;;;;;;;5115878;28;20420;-79
2022/10/08 03:21:04;;;;;;;9.43;8.33;;;;;;;;;;5134460;28;20432;-80
2022/10/08 03:23:30;;;;;;;9.13;8.33;;;;;;;;;;5134318;28;20433;-79
2022/10/08 03:25:56;;;;;;;9.33;8.43;;;;;;;;;;5115995;28;20419;-80
2022/10/08 03:28:22;;;;;;;9.30;8.43;;;;;;;;;;5134438;28;20439;-79
2022/10/08 03:30:48;;;;;;;11.77;9.10;;;;;;;;;;5134216;28;20556;-80
2022/10/08 03:33:14;;;;;;;9.67;8.80;;;;;;;;;;5134251;28;20408;-80
2022/10/08 03:35:46;;;;;;;10.13;9.13;;;;;;;;;;5115937;28;20415;-79
2022/10/08 03:38:16;;;;;;;10.30;9.40;;;;;;;;;;5134181;28;20822;-79
2022/10/08 03:40:42;;;;;;;9.30;8.40;;;;;;;;;;5134285;28;20890;-79
2022/10/08 03:43:08;;;;;;;10.40;9.43;;;;;;;;;;5134254;28;20462;-78
2022/10/08 03:45:34;;;;;;;11.13;10.10;;;;;;;;;;5134175;28;20403;-79
2022/10/08 03:48:00;;;;;;;10.73;9.60;;;;;;;;;;5134136;28;20410;-80
2022/10/08 03:50:26;;;;;;;11.50;10.40;;;;;;;;;;5118336;27;20475;-80
2022/10/08 03:52:52;;;;;;;15.77;10.47;;;;;;;;;;5138221;27;20407;-79
2022/10/08 03:55:18;;;;;;;11.23;10.00;;;;;;;;;;5138213;27;20761;-80
2022/10/08 03:57:44;;;;;;;13.03;10.13;;;;;;;;;;5119715;27;20419;-80
2022/10/08 04:00:10;;;;;;;9.93;9.20;;;;;;;;;;5138055;27;20439;-79
2022/10/08 04:02:36;;;;;;;9.83;9.00;;;;;;;;;;5138038;27;20454;-80
2022/10/08 04:05:02;;;;;;;12.40;9.60;;;;;;;;;;5137815;27;20955;-81
2022/10/08 04:07:28;;;;;;;10.17;9.00;;;;;;;;;;5137880;27;20406;-73
2022/10/08 04:09:54;;;;;;;9.87;8.97;;;;;;;;;;5137898;27;20404;-76
2022/10/08 04:12:20;;;;;;;9.83;8.83;;;;;;;;;;5119491;27;20439;-68
2022/10/08 04:14:46;;;;;;;13.60;9.10;;;;;;;;;;5137779;27;20494;-74
2022/10/08 04:17:12;;;;;;;10.03;8.50;;;;;;;;;;5137836;27;20427;-74
2022/10/08 04:19:38;;;;;;;24.07;9.30;;;;;;;;;;5137594;27;20419;-71
2022/10/08 04:22:04;;;;;;;11.23;9.77;;;;;;;;;;5137694;27;20448;-72
2022/10/08 04:24:30;;;;;;;11.30;9.10;;;;;;;;;;5137702;27;20465;-75
2022/10/08 04:26:56;;;;;;;12.93;9.70;;;;;;;;;;5137572;27;20883;-73
2022/10/08 04:29:22;;;;;;;13.27;10.50;;;;;;;;;;5137665;27;20403;-79
2022/10/08 04:31:48;;;;;;;12.63;9.40;;;;;;;;;;5137619;27;20552;-81
2022/10/08 04:34:14;;;;;;;15.20;10.47;;;;;;;;;;5137378;27;20743;-80
2022/10/08 04:36:40;;;;;;;11.70;9.80;;;;;;;;;;5137460;27;20414;-80
2022/10/08 04:39:06;;;;;;;14.00;10.47;;;;;;;;;;5137332;27;20404;-81
2022/10/08 04:41:32;;;;;;;10.57;9.47;;;;;;;;;;5137262;27;20487;-80
2022/10/08 04:43:59;;;;;;;10.67;9.57;;;;;;;;;;5137269;27;20412;-80
2022/10/08 04:46:25;;;;;;;13.10;10.80;;;;;;;;;;5118873;27;20500;-77
2022/10/08 04:48:52;;;;;;;15.50;9.90;;;;;;;;;;5137131;27;20437;-80
2022/10/08 04:51:19;;;;;;;12.33;10.27;;;;;;;;;;5118599;27;20476;-75
2022/10/08 04:53:45;;;;;;;25.00;9.77;;;;;;;;;;5118586;27;20420;-71
2022/10/08 04:56:13;;;;;;;11.43;9.83;;;;;;;;;;5137071;27;20415;-73
2022/10/08 04:58:39;;;;;;;19.90;10.33;;;;;;;;;;5118573;27;20446;-73
2022/10/08 05:01:06;;;;;;;13.13;10.00;;;;;;;;;;5117787;27;20465;-78
2022/10/08 05:03:39;;;;;;;14.97;10.60;;;;;;;;;;5136639;27;20943;-73
2022/10/08 05:06:05;;;;;;;13.53;12.20;;;;;;;;;;5136800;27;20420;-72
2022/10/08 05:08:31;;;;;;;17.17;10.50;;;;;;;;;;5118278;27;20420;-71
2022/10/08 05:10:57;;;;;;;15.70;10.53;;;;;;;;;;5136650;27;20467;-76
2022/10/08 05:13:23;;;;;;;21.47;11.57;;;;;;;;;;5136649;27;20498;-77
2022/10/08 05:15:49;;;;;;;16.23;11.90;;;;;;;;;;5136642;27;20405;-75
2022/10/08 05:18:15;;;;;;;14.23;11.67;;;;;;;;;;5136515;27;20425;-75
2022/10/08 05:20:41;;;;;;;18.07;11.90;;;;;;;;;;5118085;27;20420;-74
2022/10/08 05:23:07;;;;;;;13.70;10.90;;;;;;;;;;5136395;27;20416;-72
2022/10/08 05:25:34;;;;;;;18.57;11.53;;;;;;;;;;5136510;27;20738;-74
2022/10/08 05:28:01;;;;;;;15.13;11.53;;;;;;;;;;5136390;27;20405;-72
2022/10/08 05:30:27;;;;;;;11.40;9.97;;;;;;;;;;5136492;27;20462;-74
2022/10/08 05:32:53;;;;;;;15.93;11.40;;;;;;;;;;5136293;27;20817;-70
2022/10/08 05:35:19;;;;;;;16.50;10.73;;;;;;;;;;5136247;27;20404;-73
2022/10/08 05:37:44;;;;;;;17.83;10.50;;;;;;;;;;5136279;27;20449;-68
2022/10/08 05:40:10;;;;;;;18.20;11.47;;;;;;;;;;5136172;27;20384;-71
2022/10/08 05:42:37;;;;;;;12.43;10.60;;;;;;;;;;5136252;27;20499;-72
2022/10/08 05:45:03;;;;;;;18.17;10.87;;;;;;;;;;5136060;27;20388;-69
2022/10/08 05:47:29;;;;;;;14.10;10.50;;;;;;;;;;5135978;27;20439;-75
2022/10/08 05:49:55;;;;;;;13.77;10.60;;;;;;;;;;5135290;27;20444;-73
2022/10/08 05:52:20;;;;;;;12.30;10.80;;;;;;;;;;5135841;27;20174;-69
2022/10/08 05:54:46;;;;;;;19.80;10.20;;;;;;;;;;5135829;27;20506;-73
2022/10/08 05:57:12;;;;;;;18.93;11.30;;;;;;;;;;5135720;27;20419;-80
2022/10/08 05:59:38;;;;;;;23.63;17.73;;;;;;;;;;5135536;27;20408;-71
2022/10/08 06:02:04;;;;;;;18.20;16.13;;;;;;;;;;5135658;27;20412;-70
2022/10/08 06:04:30;;;;;;;24.10;15.80;;;;;;;;;;5135386;27;20480;-76
2022/10/08 06:06:56;;;;;;;16.30;11.73;;;;;;;;;;5135589;27;20408;-78
2022/10/08 06:09:22;;;;;;;32.37;24.30;;;;;;;;;;5135816;27;20419;-75
2022/10/08 06:11:48;;;;;;;31.37;27.40;;;;;;;;;;5135375;27;20470;-76
2022/10/08 06:14:19;;;;;;;17.80;13.13;;;;;;;;;;5135502;27;20401;-73
2022/10/08 06:16:45;;;;;;;11.03;10.03;;;;;;;;;;5135548;27;20393;-80
2022/10/08 06:19:11;;;;;;;21.20;10.60;;;;;;;;;;5135453;27;20491;-72
2022/10/08 06:21:37;;;;;;;16.67;11.30;;;;;;;;;;5135409;27;20423;-79
2022/10/08 06:24:07;;;;;;;15.30;11.30;;;;;;;;;;5135340;27;20922;-79
2022/10/08 06:26:35;;;;;;;19.50;11.53;;;;;;;;;;5135277;27;20423;-77
2022/10/08 06:29:01;;;;;;;17.43;10.53;;;;;;;;;;5135155;27;20502;-79
2022/10/08 06:31:27;;;;;;;19.03;15.33;;;;;;;;;;5135111;27;20493;-77
2022/10/08 06:33:56;;;;;;;21.70;15.30;;;;;;;;;;5135116;27;20445;-79
2022/10/08 06:36:24;;;;;;;14.73;11.85;;;;;;;;;;5134925;27;20424;-77
2022/10/08 06:38:50;;;;;;;24.43;13.00;;;;;;;;;;5134973;27;20632;-74
2022/10/08 06:41:17;;;;;;;13.80;12.23;;;;;;;;;;5116529;27;20436;-75
2022/10/08 06:43:43;;;;;;;15.47;11.63;;;;;;;;;;5134944;27;20412;-75
2022/10/08 06:46:09;;;;;;;17.77;12.20;;;;;;;;;;5116432;27;20427;-76
2022/10/08 06:48:34;;;;;;;19.30;14.17;;;;;;;;;;5134870;27;20413;-75
2022/10/08 06:51:03;;;;;;;22.23;13.83;;;;;;;;;;5134667;27;20946;-74
2022/10/08 06:53:29;;;;;;;38.87;17.37;;;;;;;;;;5134737;27;20426;-75
2022/10/08 06:55:55;;;;;;;24.03;14.30;;;;;;;;;;5134674;27;20401;-75
2022/10/08 06:58:21;;;;;;;18.57;13.43;;;;;;;;;;5134702;27;20867;-78
2022/10/08 07:00:47;;;;;;;25.33;14.60;;;;;;;;;;5134672;27;20433;-78
2022/10/08 07:03:13;;;;;;;19.87;14.57;;;;;;;;;;5134544;27;20486;-77
2022/10/08 07:05:39;;;;;;;17.43;14.27;;;;;;;;;;5134317;27;20468;-78
2022/10/08 07:08:05;;;;;;;17.20;13.90;;;;;;;;;;5134481;27;20414;-78
2022/10/08 07:10:32;;;;;;;15.47;13.10;;;;;;;;;;5134362;27;20469;-77
2022/10/08 07:12:58;;;;;;;25.93;14.30;;;;;;;;;;5134484;27;20900;-78
2022/10/08 07:15:24;;;;;;;21.40;14.40;;;;;;;;;;5134365;27;20417;-78
2022/10/08 07:17:50;;;;;;;16.90;13.83;;;;;;;;;;5134429;27;20411;-78
2022/10/08 07:20:16;;;;;;;18.80;14.40;;;;;;;;;;5134378;27;20412;-77
2022/10/08 07:22:42;;;;;;;17.70;15.90;;;;;;;;;;5134346;28;20447;-77
2022/10/08 07:25:08;;;;;;;20.50;16.33;;;;;;;;;;5133902;27;20433;-77
2022/10/08 07:27:34;;;;;;;19.83;14.47;;;;;;;;;;5134262;28;20421;-78
2022/10/08 07:30:00;;;;;;;20.60;15.57;;;;;;;;;;5134054;28;20873;-78
2022/10/08 07:32:26;;;;;;;18.43;14.97;;;;;;;;;;5134251;28;20417;-77
2022/10/08 07:34:52;;;;;;;17.63;15.03;;;;;;;;;;5134199;28;20418;-79
2022/10/08 07:37:18;;;;;;;24.23;15.00;;;;;;;;;;5134205;28;20398;-78
2022/10/08 07:39:44;;;;;;;17.67;14.97;;;;;;;;;;5115737;28;20469;-76
2022/10/08 07:42:10;;;;;;;17.03;15.43;;;;;;;;;;5134177;28;20414;-78
2022/10/08 07:44:36;;;;;;;16.87;14.57;;;;;;;;;;5115787;28;20429;-79
2022/10/08 07:47:02;;;;;;;27.13;15.30;;;;;;;;;;5134218;28;20411;-77
2022/10/08 07:49:28;;;;;;;22.93;16.30;;;;;;;;;;5134067;28;20407;-76
2022/10/08 07:51:54;;;;;;;19.00;15.47;;;;;;;;;;5133924;28;20469;-79
2022/10/08 07:54:20;;;;;;;18.47;14.23;;;;;;;;;;5115629;28;20429;-79
2022/10/08 07:56:46;;;;;;;20.80;15.43;;;;;;;;;;5134140;28;20418;-77
2022/10/08 07:59:14;;;;;;;16.50;14.70;;;;;;;;;;5134070;28;20418;-76
2022/10/08 08:01:40;;;;;;;22.57;14.37;;;;;;;;;;5134150;28;20410;-77
2022/10/08 08:04:07;;;;;;;20.47;14.50;;;;;;;;;;5133882;28;20465;-79
2022/10/08 08:06:37;;;;;;;21.47;14.30;;;;;;;;;;5134076;28;20840;-79
2022/10/08 08:09:03;;;;;;;23.20;13.80;;;;;;;;;;5133938;28;20422;-79
2022/10/08 08:11:29;;;;;;;24.83;15.00;;;;;;;;;;5115440;28;20572;-77
2022/10/08 08:13:56;;;;;;;29.30;15.83;;;;;;;;;;5134031;28;20402;-80
2022/10/08 08:16:26;;;;;;;31.70;16.73;;;;;;;;;;5133923;28;20406;-79
2022/10/08 08:18:54;;;;;;;18.20;16.13;;;;;;;;;;5133810;28;20402;-79
2022/10/08 08:21:21;;;;;;;28.90;15.13;;;;;;;;;;5115298;28;20419;-79
2022/10/08 08:23:48;;;;;;;20.90;13.60;;;;;;;;;;5133751;28;20409;-80
2022/10/08 08:26:16;;;;;;;24.43;13.63;;;;;;;;;;5115262;28;20432;-79
2022/10/08 08:28:42;;;;;;;15.80;14.13;;;;;;;;;;5115285;28;20406;-76
2022/10/08 08:31:15;;;;;;;17.20;13.00;;;;;;;;;;5133630;28;20469;-75
2022/10/08 08:33:41;;;;;;;18.53;13.20;;;;;;;;;;5133707;28;20411;-78
2022/10/08 08:36:07;;;;;;;22.03;11.50;;;;;;;;;;5133560;27;20471;-78
2022/10/08 08:38:37;;;;;;;13.20;11.60;;;;;;;;;;5118857;27;20991;-77
2022/10/08 08:41:25;;;;;;;16.60;10.40;;;;;;;;;;5137338;27;20411;-78
2022/10/08 08:44:12;;;;;;;19.00;10.60;;;;;;;;;;5118042;27;20426;-78
2022/10/08 08:46:40;;;;;;;17.80;10.40;;;;;;;;;;5137112;27;20396;-80
2022/10/08 08:49:13;;;;;;;18.90;9.00;;;;;;;;;;5136973;27;20494;-78
2022/10/08 08:51:38;;;;;;;15.33;8.73;;;;;;;;;;5118396;27;20471;-78
2022/10/08 08:54:04;;;;;;;9.93;7.77;;;;;;;;;;5118463;27;20408;-77
2022/10/08 08:56:31;;;;;;;20.23;8.40;;;;;;;;;;5136970;27;20422;-79
2022/10/08 08:59:01;;;;;;;7.17;6.50;;;;;;;;;;5136894;27;20415;-80
2022/10/08 09:01:34;;;;;;;8.80;6.40;;;;;;;;;;5118495;27;20506;-81
2022/10/08 09:04:04;;;;;;;8.73;5.90;;;;;;;;;;5136644;27;20960;-79
2022/10/08 09:06:31;;;;;;;15.80;5.60;;;;;;;;;;5136868;27;20398;-79
2022/10/08 09:09:15;;;;;;;10.27;5.30;;;;;;;;;;5118151;27;20429;-80
2022/10/08 09:11:45;;;;;;;4.67;4.33;;;;;;;;;;5136560;27;20869;-78
2022/10/08 09:14:13;;;;;;;9.53;5.00;;;;;;;;;;5136653;27;20393;-79
2022/10/08 09:16:39;;;;;;;10.83;4.73;;;;;;;;;;5136696;27;20827;-80
2022/10/08 09:19:05;;;;;;;9.67;4.13;;;;;;;;;;5136524;27;20795;-79
2022/10/08 09:21:32;;;;;;;7.40;4.80;;;;;;;;;;5118101;27;20413;-79
2022/10/08 09:23:58;;;;;;;15.27;4.90;;;;;;;;;;5117963;27;20467;-78
2022/10/08 09:26:25;;;;;;;5.73;4.00;;;;;;;;;;5136519;27;20898;-78
2022/10/08 09:28:55;;;;;;;8.23;3.40;;;;;;;;;;5136426;27;20409;-78
2022/10/08 09:31:40;;;;;;;6.40;3.93;;;;;;;;;;5136299;27;20464;-82
2022/10/08 09:34:06;;;;;;;7.13;3.17;;;;;;;;;;5136321;27;20458;-81
2022/10/08 09:36:51;;;;;;;5.70;3.47;;;;;;;;;;5136310;27;20880;-79
2022/10/08 09:39:19;;;;;;;5.70;3.20;;;;;;;;;;5136159;27;20416;-79
2022/10/08 09:41:45;;;;;;;5.53;3.40;;;;;;;;;;5117733;27;20406;-78
2022/10/08 09:44:11;;;;;;;15.63;2.83;;;;;;;;;;5136105;27;20507;-75
2022/10/08 09:46:37;;;;;;;6.37;2.97;;;;;;;;;;5117669;27;20835;-69
2022/10/08 09:49:20;;;;;;;11.23;3.50;;;;;;;;;;5135821;27;20420;-71
2022/10/08 09:51:46;;;;;;;6.93;3.10;;;;;;;;;;5135853;27;20958;-75
2022/10/08 09:54:17;;;;;;;4.87;2.60;;;;;;;;;;5135928;27;20495;-74
2022/10/08 09:56:51;;;;;;;8.40;3.50;;;;;;;;;;5117552;27;20425;-70
2022/10/08 09:59:19;;;;;;;7.37;3.30;;;;;;;;;;5136052;27;20400;-72
2022/10/08 10:01:45;;;;;;;3.70;2.90;;;;;;;;;;5135933;27;20817;-70
2022/10/08 10:04:18;;;;;;;6.30;3.00;;;;;;;;;;5117241;27;20513;-70
2022/10/08 10:06:47;;;;;;;5.67;3.83;;;;;;;;;;5135656;27;20442;-76
2022/10/08 10:09:36;;;;;;;5.50;3.10;;;;;;;;;;5135234;27;20416;-72
2022/10/08 10:12:05;;;;;;;6.20;2.90;;;;;;;;;;5140448;27;20968;-70
2022/10/08 10:14:31;;;;;;;11.00;3.40;;;;;;;;;;5135045;27;20400;-71
2022/10/08 10:17:11;;;;;;;4.20;3.00;;;;;;;;;;5135123;27;20417;-73
2022/10/08 10:19:45;;;;;;;5.50;3.37;;;;;;;;;;5135221;27;20398;-72
2022/10/08 10:22:14;;;;;;;7.27;3.07;;;;;;;;;;5135289;27;20442;-67
2022/10/08 10:24:49;;;;;;;6.10;3.40;;;;;;;;;;5134753;27;20419;-68
2022/10/08 10:27:24;;;;;;;4.80;3.37;;;;;;;;;;5134899;27;20400;-73
2022/10/08 10:29:56;;;;;;;10.90;3.27;;;;;;;;;;5135084;27;20453;-70
2022/10/08 10:32:26;;;;;;;3.87;2.80;;;;;;;;;;5133920;27;20468;-78
2022/10/08 10:34:57;;;;;;;3.67;2.60;;;;;;;;;;5134188;27;20404;-68
2022/10/08 10:37:33;;;;;;;7.80;2.70;;;;;;;;;;5134554;27;20816;-71
2022/10/08 10:40:15;;;;;;;6.80;2.70;;;;;;;;;;5134418;27;20405;-72
2022/10/08 10:43:00;;;;;;;7.37;3.07;;;;;;;;;;5116040;27;20817;-77
2022/10/08 10:45:30;;;;;;;3.20;2.90;;;;;;;;;;5134765;27;20428;-76
2022/10/08 10:47:56;;;;;;;8.53;2.70;;;;;;;;;;5134663;27;20517;-70
2022/10/08 10:50:26;;;;;;;5.10;2.90;;;;;;;;;;5134867;27;20408;-81
2022/10/08 10:52:55;;;;;;;6.63;3.20;;;;;;;;;;5116378;27;20427;-80
2022/10/08 10:55:40;;;;;;;14.40;5.50;;;;;;;;;;5116458;27;20463;-84
2022/10/08 10:58:09;;;;;;;10.93;4.67;;;;;;;;;;5134772;27;20461;-80
2022/10/08 11:00:38;;;;;;;11.70;4.03;;;;;;;;;;5133899;27;20408;-79
2022/10/08 11:03:15;;;;;;;26.83;8.00;;;;;;;;;;5134476;27;20402;-81
2022/10/08 11:05:42;;;;;;;24.63;8.67;;;;;;;;;;5134162;27;20506;-79
2022/10/08 11:08:18;;;;;;;5.10;3.10;;;;;;;;;;5134012;27;20413;-82
2022/10/08 11:10:44;;;;;;;5.10;2.93;;;;;;;;;;5134291;27;20568;-82
2022/10/08 11:13:26;;;;;;;7.60;2.70;;;;;;;;;;5134090;27;20401;-82
2022/10/08 11:15:55;;;;;;;9.00;2.90;;;;;;;;;;5115920;28;20421;-80
2022/10/08 11:18:40;;;;;;;11.00;3.57;;;;;;;;;;5115798;27;20823;-82
2022/10/08 11:21:14;;;;;;;7.50;3.50;;;;;;;;;;5134240;27;20474;-78
2022/10/08 11:23:48;;;;;;;16.00;5.40;;;;;;;;;;5115869;28;20432;-75
2022/10/08 11:26:19;;;;;;;9.13;5.27;;;;;;;;;;5133950;28;20412;-73
2022/10/08 11:28:59;;;;;;;10.63;4.40;;;;;;;;;;5133995;28;20415;-73
2022/10/08 11:31:42;;;;;;;7.53;3.90;;;;;;;;;;5133657;28;20468;-74
2022/10/08 11:34:19;;;;;;;8.70;3.70;;;;;;;;;;5115652;28;20909;-74
2022/10/08 11:36:48;;;;;;;4.13;2.80;;;;;;;;;;5133706;28;20406;-76
2022/10/08 11:39:21;;;;;;;7.97;2.87;;;;;;;;;;5133840;28;20423;-81
2022/10/08 11:42:02;;;;;;;9.40;3.30;;;;;;;;;;5134454;28;20745;-78
2022/10/08 11:44:29;;;;;;;7.07;3.40;;;;;;;;;;5134018;28;20460;-78
2022/10/08 11:47:15;;;;;;;3.53;3.23;;;;;;;;;;5133994;28;20398;-79
2022/10/08 11:49:41;;;;;;;8.10;3.60;;;;;;;;;;5134071;28;20419;-79
2022/10/08 11:52:13;;;;;;;4.37;3.00;;;;;;;;;;5133247;28;20513;-76
2022/10/08 11:54:40;;;;;;;6.53;3.70;;;;;;;;;;5133806;28;20419;-74
2022/10/08 11:57:33;;;;;;;13.93;3.90;;;;;;;;;;5133819;28;20405;-76
2022/10/08 12:00:11;;;;;;;9.70;3.10;;;;;;;;;;5133428;28;20464;-74
2022/10/08 12:02:41;;;;;;;10.03;3.17;;;;;;;;;;5115212;28;20423;-83
2022/10/08 12:05:16;;;;;;;5.80;3.63;;;;;;;;;;5133521;28;20520;-79
2022/10/08 12:07:47;;;;;;;4.87;3.27;;;;;;;;;;5132655;28;20427;-82
2022/10/08 12:10:34;;;;;;;3.40;3.10;;;;;;;;;;5133907;27;20667;-77
2022/10/08 12:13:09;;;;;;;5.07;3.57;;;;;;;;;;5153690;27;20506;-75
2022/10/08 12:15:39;;;;;;;7.60;5.10;;;;;;;;;;5137435;27;20410;-76
2022/10/08 12:18:21;;;;;;;5.13;3.60;;;;;;;;;;5137711;27;20416;-75
2022/10/08 12:21:07;;;;;;;8.43;4.90;;;;;;;;;;5137429;27;20417;-75
2022/10/08 12:23:33;;;;;;;10.17;4.53;;;;;;;;;;5119127;27;20602;-75
2022/10/08 12:25:59;;;;;;;8.97;5.80;;;;;;;;;;5137339;27;20423;-73
2022/10/08 12:28:28;;;;;;;17.83;4.77;;;;;;;;;;5137024;27;20492;-86
2022/10/08 12:30:59;;;;;;;10.93;3.63;;;;;;;;;;5137373;27;20716;-78
2022/10/08 12:33:25;;;;;;;3.43;3.00;;;;;;;;;;5118692;27;20462;-76
2022/10/08 12:35:54;;;;;;;8.63;3.10;;;;;;;;;;5119090;27;20430;-77
2022/10/08 12:38:39;;;;;;;4.40;3.10;;;;;;;;;;5137463;27;20413;-80
2022/10/08 12:41:20;;;;;;;9.80;3.80;;;;;;;;;;5137365;27;20409;-77
2022/10/08 12:43:55;;;;;;;8.77;3.60;;;;;;;;;;5137312;27;20414;-77
2022/10/08 12:46:21;;;;;;;4.87;3.07;;;;;;;;;;5137187;27;20413;-76
2022/10/08 12:48:52;;;;;;;5.43;3.20;;;;;;;;;;5137242;27;20412;-72
2022/10/08 12:51:44;;;;;;;4.80;3.17;;;;;;;;;;5137102;27;20468;-73
2022/10/08 12:54:21;;;;;;;5.30;3.20;;;;;;;;;;5132458;27;20460;-71
2022/10/08 12:56:47;;;;;;;9.17;3.70;;;;;;;;;;5137157;27;20500;-74
2022/10/08 12:59:13;;;;;;;3.13;2.87;;;;;;;;;;5137056;27;20909;-75
2022/10/08 13:01:40;;;;;;;5.30;3.10;;;;;;;;;;5137309;27;20409;-73
2022/10/08 13:04:17;;;;;;;3.13;2.70;;;;;;;;;;5136921;27;20834;-72
2022/10/08 13:06:43;;;;;;;6.50;2.77;;;;;;;;;;5136873;27;20413;-73
2022/10/08 13:09:32;;;;;;;8.93;2.73;;;;;;;;;;5137023;27;20414;-73
2022/10/08 13:11:59;;;;;;;8.00;3.33;;;;;;;;;;5123503;27;20481;-75
2022/10/08 13:14:26;;;;;;;4.90;3.10;;;;;;;;;;5136762;27;20951;-77
2022/10/08 13:16:52;;;;;;;9.80;4.00;;;;;;;;;;5136779;27;20907;-76
2022/10/08 13:19:19;;;;;;;4.63;2.53;;;;;;;;;;5118251;27;20420;-74
2022/10/08 13:21:59;;;;;;;5.63;2.30;;;;;;;;;;5136082;27;20417;-76
2022/10/08 13:24:25;;;;;;;7.33;2.57;;;;;;;;;;5136377;27;20480;-74
2022/10/08 13:26:52;;;;;;;2.80;2.03;;;;;;;;;;5136607;27;20876;-76
2022/10/08 13:29:18;;;;;;;8.83;2.97;;;;;;;;;;5136370;27;20461;-76
2022/10/08 13:31:51;;;;;;;4.73;2.20;;;;;;;;;;5136434;27;20468;-74
2022/10/08 13:34:17;;;;;;;6.20;2.83;;;;;;;;;;5117908;27;20916;-76
2022/10/08 13:36:48;;;;;;;5.47;2.40;;;;;;;;;;5136310;27;20452;-74
2022/10/08 13:39:21;;;;;;;5.33;3.07;;;;;;;;;;5136233;27;20494;-76
2022/10/08 13:41:53;;;;;;;9.10;2.20;;;;;;;;;;5117775;27;20532;-73
2022/10/08 13:44:19;;;;;;;4.77;3.27;;;;;;;;;;5136226;27;20468;-77
2022/10/08 13:46:45;;;;;;;7.70;2.97;;;;;;;;;;5136146;27;20499;-77
2022/10/08 13:49:25;;;;;;;7.47;2.73;;;;;;;;;;5136187;27;20475;-78
2022/10/08 13:51:51;;;;;;;3.60;2.70;;;;;;;;;;5135928;27;20980;-74
2022/10/08 13:54:22;;;;;;;11.57;3.10;;;;;;;;;;5117506;27;20992;-77
2022/10/08 13:56:48;;;;;;;4.10;2.87;;;;;;;;;;5117486;27;20413;-77
2022/10/08 13:59:14;;;;;;;6.03;2.70;;;;;;;;;;5135917;27;20416;-80
2022/10/08 14:01:40;;;;;;;5.73;2.70;;;;;;;;;;5135818;27;20407;-75
2022/10/08 14:04:06;;;;;;;7.63;2.83;;;;;;;;;;5135533;27;20463;-81
2022/10/08 14:06:32;;;;;;;9.43;2.57;;;;;;;;;;5135695;27;20461;-73
2022/10/08 14:08:59;;;;;;;5.33;2.13;;;;;;;;;;5117189;27;20464;-74
2022/10/08 14:11:25;;;;;;;4.73;2.87;;;;;;;;;;5135523;27;20459;-74
2022/10/08 14:13:51;;;;;;;6.57;2.67;;;;;;;;;;5135458;27;20407;-73
2022/10/08 14:16:18;;;;;;;8.53;2.87;;;;;;;;;;5135541;27;20411;-74
2022/10/08 14:18:44;;;;;;;4.20;2.70;;;;;;;;;;5135507;27;20403;-74
2022/10/08 14:21:12;;;;;;;4.93;2.60;;;;;;;;;;5135501;27;20404;-74
2022/10/08 14:23:38;;;;;;;6.47;3.37;;;;;;;;;;5135207;27;20421;-75
2022/10/08 14:26:04;;;;;;;11.10;2.67;;;;;;;;;;5135172;27;20404;-75
2022/10/08 14:28:30;;;;;;;4.87;2.60;;;;;;;;;;5116853;27;20428;-74
2022/10/08 14:30:56;;;;;;;7.50;2.60;;;;;;;;;;5135188;27;20977;-74
2022/10/08 14:33:22;;;;;;;3.93;2.53;;;;;;;;;;5134933;27;20400;-74
2022/10/08 14:35:52;;;;;;;6.53;3.00;;;;;;;;;;5134564;27;20409;-75
2022/10/08 14:38:18;;;;;;;11.67;3.10;;;;;;;;;;5135150;27;20440;-76
2022/10/08 14:40:44;;;;;;;9.50;2.80;;;;;;;;;;5135105;27;20405;-77
2022/10/08 14:43:10;;;;;;;13.43;3.00;;;;;;;;;;5116549;27;21009;-75